Pleasant Garden, North Carolina
Current Conditions -  °F | °C
As of 1:54 AM on Sunday 26 Oct 2014 (Local Time) from KGSO Reporting Station
Clear Clear  
Wind Chill: 58°   Ceiling: Unl
Heat Index: 58°   Visibility: 10mi
Dew Point: 47°   Wind: 12mph
Humidity: 67%   Direction: 270°W
Pressure: 29.87"   Gusts: NA
Location:  35.96°N, 79.76°W
Report Text: KGSO 260554Z 27010KT 10SM CLR 14/08 A2987 RMK AO2 SLP109 T01440083 10167 20117 58008
Loading
Personal Weather Stations






























Interactive Weather Map
Tropical Storm Tracking
New forecast layout! Learn more

10-Day Weather Forecast

Advertisements
Track Severe Weather on mobile